Time;durP1;ratioP1;P1;durP2;ratioP2;P2;SDS_P1;SDS_P2;PMS_P1;PMS_P2;Temp;Humidity;BMP_temperature;BMP_pressure;BME280_temperature;BME280_humidity;BME280_pressure;Samples;Min_cycle;Max_cycle;Signal;HPM_P1;HPM_P2
2023/03/29 00:00:39;;;;;;;2.80;0.70;;;;;;;1.85;58.81;99336.30;105508;1254;62380;-48
2023/03/29 00:03:08;;;;;;;1.90;0.60;;;;;;;1.89;58.82;99334.19;105683;1259;61654;-47
2023/03/29 00:05:37;;;;;;;8.10;1.00;;;;;;;1.90;58.60;99343.61;105656;1258;74758;-48
2023/03/29 00:08:06;;;;;;;2.00;0.60;;;;;;;1.91;58.78;99336.48;105502;1259;71615;-47
2023/03/29 00:10:36;;;;;;;6.00;0.90;;;;;;;1.92;59.04;99350.42;105559;1259;72464;-47
2023/03/29 00:13:05;;;;;;;2.50;0.90;;;;;;;1.89;58.67;99345.05;105579;1254;60639;-47
2023/03/29 00:15:34;;;;;;;1.30;0.40;;;;;;;1.87;59.10;99346.95;105670;1254;61090;-47
2023/03/29 00:18:04;;;;;;;2.60;0.70;;;;;;;1.83;59.45;99351.30;105751;1257;76321;-47
2023/03/29 00:20:33;;;;;;;2.50;1.00;;;;;;;1.87;59.12;99350.58;105671;1254;71042;-48
2023/03/29 00:23:06;;;;;;;3.20;0.80;;;;;;;1.92;59.11;99346.80;105648;1258;64720;-46
2023/03/29 00:25:34;;;;;;;1.90;0.60;;;;;;;1.89;59.38;99352.87;105571;1255;60570;-48
2023/03/29 00:28:03;;;;;;;3.20;0.80;;;;;;;1.86;59.53;99345.95;105827;1254;61010;-46
2023/03/29 00:30:31;;;;;;;2.90;0.70;;;;;;;1.86;59.59;99354.40;105576;1254;74788;-47
2023/03/29 00:33:01;;;;;;;2.10;0.70;;;;;;;1.84;59.28;99345.02;105598;1254;71349;-47
2023/03/29 00:35:30;;;;;;;2.70;0.50;;;;;;;1.75;59.02;99368.38;105535;1255;73316;-47
2023/03/29 00:37:58;;;;;;;5.10;0.70;;;;;;;1.78;59.26;99361.80;105592;1256;62027;-46
2023/03/29 00:40:27;;;;;;;1.30;0.30;;;;;;;1.79;58.75;99367.98;105472;1254;61492;-46
2023/03/29 00:42:59;;;;;;;7.20;1.10;;;;;;;1.80;58.92;99362.06;105702;1254;74693;-47
2023/03/29 00:45:32;;;;;;;2.70;0.40;;;;;;;1.77;58.89;99366.03;105783;1258;70913;-47
2023/03/29 00:48:05;;;;;;;2.00;0.40;;;;;;;1.76;59.08;99379.95;105485;1260;64775;-47
2023/03/29 00:50:40;;;;;;;2.40;0.70;;;;;;;1.74;59.29;99385.05;105625;1253;60546;-47
2023/03/29 00:53:11;;;;;;;1.70;0.50;;;;;;;1.69;58.74;99385.34;105671;1254;60459;-48
2023/03/29 00:55:43;;;;;;;1.80;0.60;;;;;;;1.70;58.99;99391.51;105543;1254;73737;-47
2023/03/29 00:58:13;;;;;;;2.60;0.50;;;;;;;1.73;58.81;99396.04;105537;1260;71344;-47
2023/03/29 01:00:50;;;;;;;2.30;0.50;;;;;;;1.78;57.91;99409.36;105653;1260;73378;-45
2023/03/29 01:03:26;;;;;;;2.10;0.50;;;;;;;1.77;57.87;99412.05;105658;1253;60501;-46
2023/03/29 01:05:58;;;;;;;1.50;0.40;;;;;;;1.74;58.22;99412.71;105672;1254;60454;-47
2023/03/29 01:08:31;;;;;;;1.40;0.50;;;;;;;1.66;58.18;99422.83;105576;1259;73955;-47
2023/03/29 01:11:16;;;;;;;2.20;0.40;;;;;;;1.63;58.07;99409.88;105909;1254;62619;-47
2023/03/29 01:13:49;;;;;;;1.70;0.50;;;;;;;1.61;58.06;99418.27;105474;1260;64673;-46
2023/03/29 01:16:20;;;;;;;3.10;0.60;;;;;;;1.61;58.40;99429.86;105510;1260;60468;-46
2023/03/29 01:18:51;;;;;;;0.70;0.20;;;;;;;1.67;58.22;99420.73;105703;1254;60925;-47
2023/03/29 01:21:32;;;;;;;2.10;0.60;;;;;;;1.72;57.99;99423.20;105571;1258;74603;-47
2023/03/29 01:24:07;;;;;;;1.80;0.40;;;;;;;1.73;57.88;99416.92;105535;1257;61660;-46
2023/03/29 01:27:08;;;;;;;2.60;0.70;;;;;;;1.75;58.11;99438.77;105499;1255;64854;-47
2023/03/29 01:29:56;;;;;;;2.10;0.80;;;;;;;1.74;58.34;99449.55;105653;1254;60539;-47
2023/03/29 01:32:29;;;;;;;1.10;0.30;;;;;;;1.71;58.61;99452.68;105502;1264;60550;-46
2023/03/29 01:35:01;;;;;;;1.50;0.40;;;;;;;1.65;58.45;99451.27;105468;1264;66174;-47
2023/03/29 01:37:36;;;;;;;2.70;0.80;;;;;;;1.64;58.10;99455.95;105558;1258;70422;-47
2023/03/29 01:40:05;;;;;;;1.40;0.40;;;;;;;1.71;58.16;99462.54;105705;1254;64882;-46
2023/03/29 01:42:46;;;;;;;1.80;0.60;;;;;;;1.79;57.90;99469.65;105627;1257;61127;-47
2023/03/29 01:45:23;;;;;;;4.10;1.40;;;;;;;1.82;58.02;99473.11;105865;1257;60809;-47
2023/03/29 01:48:04;;;;;;;2.60;0.40;;;;;;;1.81;57.56;99478.55;105771;1256;65804;-46
2023/03/29 01:50:35;;;;;;;1.70;0.60;;;;;;;1.77;57.66;99479.27;105661;1257;62787;-47
2023/03/29 01:53:10;;;;;;;4.80;0.70;;;;;;;1.74;57.79;99484.29;105504;1254;73603;-47
2023/03/29 01:55:43;;;;;;;2.10;0.50;;;;;;;1.76;58.21;99494.06;105538;1257;60450;-47
2023/03/29 01:58:13;;;;;;;2.20;0.50;;;;;;;1.75;58.50;99498.43;105565;1260;60481;-48
2023/03/29 02:00:42;;;;;;;2.40;0.70;;;;;;;1.72;58.49;99504.15;105626;1254;75016;-47
2023/03/29 02:03:13;;;;;;;4.10;0.80;;;;;;;1.78;58.41;99510.52;105524;1259;71239;-48
2023/03/29 02:05:42;;;;;;;2.70;0.70;;;;;;;1.84;57.85;99508.08;105544;1259;64900;-48
2023/03/29 02:08:13;;;;;;;2.30;0.60;;;;;;;1.89;57.79;99513.86;105486;1260;60485;-48
2023/03/29 02:10:41;;;;;;;2.50;1.00;;;;;;;1.87;57.68;99513.47;105518;1257;62134;-48
2023/03/29 02:13:12;;;;;;;1.30;0.50;;;;;;;1.86;57.71;99517.15;105584;1258;74977;-47
2023/03/29 02:15:43;;;;;;;3.10;0.80;;;;;;;1.84;58.05;99524.35;105682;1254;71257;-47
2023/03/29 02:18:15;;;;;;;1.80;0.60;;;;;;;1.80;58.19;99521.47;105654;1257;73411;-48
2023/03/29 02:20:46;;;;;;;2.10;0.60;;;;;;;1.76;58.33;99527.77;105473;1254;60559;-48
2023/03/29 02:23:14;;;;;;;2.20;0.60;;;;;;;1.71;58.05;99533.60;105650;1257;61260;-48
2023/03/29 02:25:44;;;;;;;1.70;0.60;;;;;;;1.73;58.39;99533.64;105461;1259;74856;-48
2023/03/29 02:28:12;;;;;;;2.40;0.60;;;;;;;1.81;58.51;99538.34;105461;1254;70484;-48
2023/03/29 02:31:14;;;;;;;2.20;0.70;;;;;;;1.82;58.37;99541.41;105552;1261;73344;-46
2023/03/29 02:33:44;;;;;;;3.00;0.90;;;;;;;1.79;58.43;99539.48;105465;1257;60469;-46
2023/03/29 02:36:21;;;;;;;2.90;0.80;;;;;;;1.75;57.99;99548.08;105518;1255;61385;-47
2023/03/29 02:38:53;;;;;;;2.00;0.70;;;;;;;1.72;57.90;99544.27;105582;1260;67359;-47
2023/03/29 02:41:22;;;;;;;2.70;0.70;;;;;;;1.70;57.82;99543.00;105505;1260;71083;-47
2023/03/29 02:43:50;;;;;;;1.60;0.50;;;;;;;1.67;58.23;99544.83;105443;1259;73292;-47
2023/03/29 02:46:19;;;;;;;1.10;0.40;;;;;;;1.67;58.25;99547.81;105551;1258;62190;-48
2023/03/29 02:48:49;;;;;;;3.50;0.80;;;;;;;1.76;58.26;99553.71;105535;1257;61556;-47
2023/03/29 02:51:22;;;;;;;2.80;0.90;;;;;;;1.76;57.90;99546.23;105407;1254;73214;-48
2023/03/29 02:53:59;;;;;;;4.00;0.60;;;;;;;1.78;57.86;99550.98;105449;1259;61343;-47
2023/03/29 02:56:28;;;;;;;1.60;0.60;;;;;;;1.77;58.00;99551.36;105590;1260;64054;-47
2023/03/29 02:58:57;;;;;;;2.40;0.60;;;;;;;1.75;57.68;99545.98;105395;1254;60903;-46
2023/03/29 03:01:26;;;;;;;3.70;0.80;;;;;;;1.74;57.93;99545.35;105482;1254;61506;-47
2023/03/29 03:03:55;;;;;;;2.30;0.80;;;;;;;1.73;58.17;99549.54;105612;1257;74400;-46
2023/03/29 03:06:24;;;;;;;2.40;0.60;;;;;;;1.70;58.15;99540.23;105555;1257;70565;-47
2023/03/29 03:08:52;;;;;;;1.70;0.40;;;;;;;1.71;57.98;99547.23;105495;1254;73919;-47
2023/03/29 03:11:22;;;;;;;1.30;0.40;;;;;;;1.75;57.84;99554.46;105501;1260;60502;-47
2023/03/29 03:13:52;;;;;;;2.90;0.80;;;;;;;1.76;57.60;99562.36;105546;1260;61304;-47
2023/03/29 03:16:21;;;;;;;1.80;0.70;;;;;;;1.75;57.67;99582.14;105519;1257;74784;-46
2023/03/29 03:18:51;;;;;;;1.20;0.30;;;;;;;1.67;58.55;99566.64;105607;1254;71015;-46
2023/03/29 03:21:19;;;;;;;2.20;0.80;;;;;;;1.66;58.82;99566.36;105537;1258;73541;-45
2023/03/29 03:23:48;;;;;;;2.40;0.50;;;;;;;1.65;58.72;99569.30;105658;1254;60543;-47
2023/03/29 03:26:17;;;;;;;3.30;0.70;;;;;;;1.64;58.37;99573.86;105562;1254;61187;-47
2023/03/29 03:28:47;;;;;;;1.40;0.40;;;;;;;1.65;58.22;99576.26;105571;1254;74784;-46
2023/03/29 03:31:36;;;;;;;3.70;0.60;;;;;;;1.70;57.68;99576.52;105597;1257;62821;-47
2023/03/29 03:34:29;;;;;;;1.70;0.40;;;;;;;1.71;57.60;99577.36;105488;1260;64162;-48
2023/03/29 03:37:03;;;;;;;1.30;0.40;;;;;;;1.73;57.42;99575.65;105338;1254;60641;-48
2023/03/29 03:39:32;;;;;;;2.10;0.50;;;;;;;1.74;57.42;99572.16;105629;1254;60598;-47
2023/03/29 03:42:02;;;;;;;1.60;0.50;;;;;;;1.75;57.35;99586.63;105660;1254;74068;-47
2023/03/29 03:44:38;;;;;;;;;;;;;;;1.65;57.21;99580.40;105565;1254;62673;-48
2023/03/29 03:47:20;;;;;;;3.80;0.60;;;;;;;1.62;57.12;99588.88;105764;1257;64686;-49
2023/03/29 03:49:48;;;;;;;4.70;0.70;;;;;;;1.59;57.50;99596.11;105547;1254;60443;-48
2023/03/29 03:52:17;;;;;;;4.60;0.90;;;;;;;1.55;57.73;99598.09;105532;1257;61306;-48
2023/03/29 03:54:47;;;;;;;3.10;1.30;;;;;;;1.51;57.77;99597.27;105724;1260;74781;-48
2023/03/29 03:57:43;;;;;;;1.90;0.60;;;;;;;1.60;57.54;99600.02;105502;1254;62620;-48
2023/03/29 04:00:20;;;;;;;1.40;0.50;;;;;;;1.68;57.07;99599.61;105776;1257;73513;-47
2023/03/29 04:03:08;;;;;;;2.50;0.60;;;;;;;1.69;56.75;99601.30;105481;1254;60541;-46
2023/03/29 04:05:39;;;;;;;2.90;0.50;;;;;;;1.68;56.98;99607.20;105538;1254;61296;-46
2023/03/29 04:08:08;;;;;;;3.00;0.60;;;;;;;1.65;57.04;99614.13;105516;1258;74433;-47
2023/03/29 04:10:57;;;;;;;2.40;0.60;;;;;;;1.63;57.31;99619.42;105470;1254;62605;-47
2023/03/29 04:13:31;;;;;;;2.20;0.70;;;;;;;1.57;57.39;99622.88;105495;1254;64631;-47
2023/03/29 04:16:26;;;;;;;3.20;0.90;;;;;;;1.49;57.48;99620.70;105432;1254;60511;-47
2023/03/29 04:18:55;;;;;;;2.90;0.50;;;;;;;1.48;57.62;99633.77;105493;1256;61362;-46
2023/03/29 04:21:24;;;;;;;2.50;0.50;;;;;;;1.46;57.49;99636.27;105664;1257;74886;-46
2023/03/29 04:23:54;;;;;;;1.10;0.30;;;;;;;1.52;57.26;99636.98;105448;1258;71483;-46
2023/03/29 04:26:23;;;;;;;6.30;0.90;;;;;;;1.56;57.08;99642.28;105662;1258;72722;-46
2023/03/29 04:29:03;;;;;;;1.20;0.30;;;;;;;1.58;56.91;99641.64;105517;1254;60478;-46
2023/03/29 04:31:41;;;;;;;3.30;0.60;;;;;;;1.58;57.16;99643.71;105609;1257;60445;-46
2023/03/29 04:34:28;;;;;;;2.40;0.90;;;;;;;1.58;57.39;99651.13;105704;1257;66464;-46
2023/03/29 04:36:57;;;;;;;3.40;1.10;;;;;;;1.56;57.03;99653.69;105698;1254;71090;-47
2023/03/29 04:39:33;;;;;;;2.80;1.10;;;;;;;1.53;57.22;99661.30;105445;1259;72507;-46
2023/03/29 04:42:05;;;;;;;2.30;0.80;;;;;;;1.48;57.49;99652.75;105791;1254;60469;-46
2023/03/29 04:44:35;;;;;;;3.10;0.90;;;;;;;1.51;57.85;99656.90;105537;1257;60543;-46
2023/03/29 04:47:05;;;;;;;3.10;0.60;;;;;;;1.59;57.63;99659.91;105593;1257;74683;-47
2023/03/29 04:49:36;;;;;;;1.40;0.30;;;;;;;1.69;57.11;99666.14;105514;1257;71076;-47
2023/03/29 04:52:07;;;;;;;3.10;0.80;;;;;;;1.70;57.01;99675.41;105629;1254;73661;-47
2023/03/29 04:54:37;;;;;;;1.60;0.50;;;;;;;1.61;57.83;99682.48;105484;1254;60639;-47
2023/03/29 04:57:14;;;;;;;2.50;1.10;;;;;;;1.54;58.25;99675.77;105485;1254;61197;-46
2023/03/29 05:00:07;;;;;;;2.00;0.30;;;;;;;1.54;57.91;99679.73;105495;1257;66049;-47
2023/03/29 05:02:59;;;;;;;5.10;0.90;;;;;;;1.57;57.78;99677.82;105456;1257;62636;-48
2023/03/29 05:05:29;;;;;;;3.60;0.70;;;;;;;1.57;57.83;99696.01;105628;1254;72140;-49
2023/03/29 05:08:02;;;;;;;2.80;1.10;;;;;;;1.51;58.48;99686.83;105467;1260;60528;-48
2023/03/29 05:11:07;;;;;;;4.60;0.70;;;;;;;1.46;60.11;99680.32;108241;1253;58837;-45
2023/03/29 05:13:35;;;;;;;1.70;0.40;;;;;;;1.47;59.24;99685.27;109191;1253;74831;-46
2023/03/29 05:16:04;;;;;;;3.00;0.80;;;;;;;1.46;70.43;99689.83;109212;1253;70343;-46
2023/03/29 05:18:33;;;;;;;1.80;0.70;;;;;;;1.52;69.97;99694.55;109161;1254;73513;-46
2023/03/29 05:21:03;;;;;;;2.80;0.70;;;;;;;1.51;69.58;99694.23;109232;1254;60480;-46
2023/03/29 05:23:35;;;;;;;3.10;0.50;;;;;;;1.56;63.79;99694.66;109198;1253;61130;-46
2023/03/29 05:26:22;;;;;;;3.20;0.80;;;;;;;1.53;65.26;99696.73;105999;1253;66436;-46
2023/03/29 05:29:00;;;;;;;3.60;1.60;;;;;;;1.47;64.90;99694.63;105466;1254;71347;-47
2023/03/29 05:31:31;;;;;;;2.30;0.60;;;;;;;1.44;65.65;99695.98;105377;1254;73584;-45
2023/03/29 05:34:00;;;;;;;3.30;1.10;;;;;;;1.43;65.62;99693.10;105522;1254;60835;-46
2023/03/29 05:36:29;;;;;;;2.90;0.80;;;;;;;1.34;65.27;99712.58;105738;1253;60450;-46
2023/03/29 05:38:58;;;;;;;3.50;1.10;;;;;;;1.27;66.75;99709.16;105499;1254;74595;-46
2023/03/29 05:41:28;;;;;;;1.80;0.60;;;;;;;1.31;66.51;99711.86;105592;1254;71675;-46
2023/03/29 05:44:20;;;;;;;2.20;0.70;;;;;;;1.42;66.60;99709.94;105327;1254;64698;-46
2023/03/29 05:46:53;;;;;;;2.80;1.00;;;;;;;1.48;66.53;99709.59;105445;1258;60945;-46
2023/03/29 05:49:22;;;;;;;2.80;0.70;;;;;;;1.51;63.27;99712.92;105442;1254;61290;-46
2023/03/29 05:52:10;;;;;;;3.90;1.20;;;;;;;1.47;62.10;99728.64;105545;1257;66143;-46
2023/03/29 05:54:39;;;;;;;1.90;0.50;;;;;;;1.34;62.66;99735.72;105521;1254;71353;-46
2023/03/29 05:57:07;;;;;;;2.70;0.90;;;;;;;1.25;62.37;99730.16;105616;1254;73669;-46
2023/03/29 05:59:40;;;;;;;2.80;0.60;;;;;;;1.21;61.60;99732.96;105586;1253;60338;-47
2023/03/29 06:02:10;;;;;;;2.70;0.90;;;;;;;1.20;61.61;99725.05;105526;1254;60569;-47
2023/03/29 06:04:43;;;;;;;3.30;1.10;;;;;;;1.16;67.76;99738.08;105595;1257;74761;-46
2023/03/29 06:07:33;;;;;;;2.40;0.70;;;;;;;1.12;66.10;99732.19;105548;1253;62616;-47
2023/03/29 06:10:32;;;;;;;2.00;1.10;;;;;;;1.28;64.09;99741.23;105371;1261;65156;-47
2023/03/29 06:13:17;;;;;;;1.30;0.80;;;;;;;1.37;60.37;99760.30;105602;1254;60445;-46
2023/03/29 06:15:47;;;;;;;3.50;1.10;;;;;;;1.32;59.81;99770.56;105607;1254;62354;-48
2023/03/29 06:18:17;;;;;;;2.60;0.80;;;;;;;1.30;62.05;99760.30;105436;1258;75762;-46
2023/03/29 06:20:50;;;;;;;3.50;0.70;;;;;;;1.28;61.16;99759.89;105633;1257;70281;-47
2023/03/29 06:23:19;;;;;;;3.20;0.90;;;;;;;1.31;61.14;99755.97;105266;1260;73717;-46
2023/03/29 06:25:50;;;;;;;3.30;1.00;;;;;;;1.30;61.15;99753.74;105531;1254;60559;-46
2023/03/29 06:28:19;;;;;;;3.10;0.80;;;;;;;1.33;61.12;99754.30;105364;1254;60565;-46
2023/03/29 06:30:48;;;;;;;3.80;0.60;;;;;;;1.38;60.63;99764.05;105454;1257;74975;-46
2023/03/29 06:33:19;;;;;;;4.50;0.70;;;;;;;1.44;58.98;99773.59;105734;1254;71397;-46
2023/03/29 06:35:56;;;;;;;2.30;0.80;;;;;;;1.56;58.80;99774.16;105475;1253;73360;-46
2023/03/29 06:38:30;;;;;;;3.20;0.80;;;;;;;1.64;58.44;99773.77;105549;1254;61032;-46
2023/03/29 06:41:31;;;;;;;3.80;0.80;;;;;;;1.74;58.45;99775.50;108860;1253;58573;-47
2023/03/29 06:44:07;;;;;;;4.30;1.50;;;;;;;1.80;59.00;99789.67;109197;1253;74476;-45
2023/03/29 06:46:43;;;;;;;1.80;0.60;;;;;;;1.82;59.65;99786.80;106297;1259;70536;-46
2023/03/29 06:49:12;;;;;;;3.60;1.00;;;;;;;1.79;59.54;99803.74;105381;1254;73671;-47
2023/03/29 06:51:59;;;;;;;3.30;0.90;;;;;;;1.73;59.21;99802.16;105526;1254;60974;-46
2023/03/29 06:54:28;;;;;;;3.30;0.90;;;;;;;1.65;57.98;99799.80;105465;1254;61425;-46
2023/03/29 06:57:06;;;;;;;3.30;1.00;;;;;;;1.64;57.10;99815.96;105615;1256;76611;-46
2023/03/29 06:59:37;;;;;;;2.50;0.70;;;;;;;1.62;58.53;99813.80;105245;1254;71650;-47
2023/03/29 07:02:19;;;;;;;1.60;0.60;;;;;;;1.56;58.05;99834.17;105573;1254;72342;-46
2023/03/29 07:05:05;;;;;;;3.70;0.70;;;;;;;1.55;59.45;99823.33;105543;1253;60552;-46
2023/03/29 07:07:52;;;;;;;6.80;2.00;;;;;;;1.43;64.32;99827.23;105477;1254;61224;-46
2023/03/29 07:10:32;;;;;;;10.00;1.90;;;;;;;1.34;97.24;99834.26;105497;1254;74770;-48
2023/03/29 07:13:19;;;;;;;3.10;0.90;;;;;;;1.52;100.00;99851.98;105445;1253;71081;-47
2023/03/29 07:15:48;;;;;;;3.30;0.90;;;;;;;1.63;95.12;99844.35;105474;1254;73547;-48
2023/03/29 07:18:25;;;;;;;2.60;0.70;;;;;;;1.63;84.85;99860.27;105595;1254;60504;-47
2023/03/29 07:20:54;;;;;;;2.80;0.80;;;;;;;1.62;81.67;99857.57;105545;1254;61019;-65
2023/03/29 07:23:23;;;;;;;4.20;1.10;;;;;;;1.69;83.07;99855.48;105485;1259;74675;-60
2023/03/29 07:25:52;;;;;;;3.80;1.10;;;;;;;1.72;81.26;99858.25;105347;1254;71301;-61
2023/03/29 07:28:21;;;;;;;3.00;1.10;;;;;;;1.66;76.98;99867.88;105377;1254;73475;-59
2023/03/29 07:30:53;;;;;;;4.00;1.00;;;;;;;1.54;74.70;99883.88;105539;1254;60472;-60
2023/03/29 07:33:23;;;;;;;3.10;0.90;;;;;;;1.51;76.63;99866.93;105631;1254;60780;-60
2023/03/29 07:35:59;;;;;;;4.00;1.00;;;;;;;1.50;77.01;99866.47;105410;1254;75880;-61
2023/03/29 07:38:44;;;;;;;3.30;0.80;;;;;;;1.53;75.77;99875.62;105235;1254;257820;-64
2023/03/29 07:43:09;;;;;;;3.40;0.80;;;;;;;1.46;72.89;99892.56;102564;1294;601134;-60
2023/03/29 07:45:41;;;;;;;3.60;1.40;;;;;;;1.71;68.69;99885.95;104696;1267;60315;-60
2023/03/29 07:48:11;;;;;;;3.30;0.90;;;;;;;1.76;63.39;99882.27;104768;1265;60988;-59
2023/03/29 07:51:06;;;;;;;4.80;0.80;;;;;;;1.82;61.68;99889.02;104698;1267;64471;-63
2023/03/29 07:53:44;;;;;;;2.80;0.80;;;;;;;1.81;60.60;99896.38;104645;1267;70353;-62
2023/03/29 07:56:36;;;;;;;6.00;1.20;;;;;;;1.74;60.59;99896.02;104737;1264;192941;-60
2023/03/29 07:59:20;;;;;;;4.20;0.80;;;;;;;1.64;60.19;99913.45;104859;1265;60514;-60
2023/03/29 08:02:09;;;;;;;4.50;1.00;;;;;;;1.63;61.45;99914.03;105226;1260;59441;-60
2023/03/29 08:04:41;;;;;;;4.00;0.80;;;;;;;1.63;61.81;99908.66;105123;1260;73161;-61
2023/03/29 08:07:31;;;;;;;3.40;1.10;;;;;;;1.73;62.33;99912.86;105162;1260;62367;-61
2023/03/29 08:10:24;;;;;;;3.60;0.60;;;;;;;1.85;61.23;99922.78;105166;1261;64025;-62
2023/03/29 08:13:09;;;;;;;2.70;0.60;;;;;;;1.89;62.01;99918.27;104944;1260;60514;-60
2023/03/29 08:15:56;;;;;;;6.50;1.10;;;;;;;1.82;63.86;99923.63;105101;1260;59679;-61
2023/03/29 08:18:31;;;;;;;3.60;1.30;;;;;;;1.79;64.88;99928.09;105150;1262;73966;-59
2023/03/29 08:21:08;;;;;;;2.50;0.60;;;;;;;1.79;63.95;99929.16;104834;1265;71330;-61
2023/03/29 08:23:36;;;;;;;1.90;0.70;;;;;;;1.75;63.05;99931.77;105120;1260;73685;-59
2023/03/29 08:26:11;;;;;;;4.10;1.10;;;;;;;1.70;63.92;99936.52;105061;1263;59723;-59
2023/03/29 08:28:39;;;;;;;3.30;1.10;;;;;;;1.66;63.90;99941.05;105004;1260;61350;-61
2023/03/29 08:31:11;;;;;;;2.50;0.70;;;;;;;1.68;63.31;99942.80;105116;1263;72990;-59
2023/03/29 08:33:43;;;;;;;3.40;0.90;;;;;;;1.64;62.79;99948.71;105239;1263;71256;-59
2023/03/29 08:36:39;;;;;;;3.20;0.90;;;;;;;1.73;63.32;99941.35;105226;1263;73048;-61
2023/03/29 08:39:15;;;;;;;5.80;1.00;;;;;;;1.93;62.25;99941.23;104955;1260;60540;-61
2023/03/29 08:42:12;;;;;;;6.70;1.00;;;;;;;2.02;61.35;99952.34;104925;1266;60131;-61
2023/03/29 08:45:01;;;;;;;4.50;0.80;;;;;;;2.02;61.67;99947.85;105103;1263;65253;-61
2023/03/29 08:48:04;;;;;;;3.00;0.90;;;;;;;2.01;61.12;99948.09;105106;1260;62873;-60
2023/03/29 08:50:41;;;;;;;3.20;0.90;;;;;;;2.00;61.98;99947.78;105157;1266;65102;-60
2023/03/29 08:53:16;;;;;;;4.90;1.60;;;;;;;1.97;62.26;99952.12;105125;1266;59983;-60
2023/03/29 08:56:34;;;;;;;4.50;1.50;;;;;;;1.94;62.69;99961.79;104585;1261;59862;-62
2023/03/29 08:59:16;;;;;;;4.30;1.60;;;;;;;1.92;64.16;99968.10;105027;1262;65177;-62
2023/03/29 09:01:45;;;;;;;2.80;0.80;;;;;;;1.90;63.41;99963.01;105141;1261;71236;-62
2023/03/29 09:04:17;;;;;;;2.80;0.70;;;;;;;1.92;63.87;99954.79;104839;1260;73637;-61
2023/03/29 09:06:56;;;;;;;3.50;1.10;;;;;;;2.07;63.50;99961.96;105049;1260;61868;-69
2023/03/29 09:09:31;;;;;;;2.90;0.70;;;;;;;2.12;61.85;99966.40;104991;1260;61491;-60
2023/03/29 09:12:15;;;;;;;1.70;0.50;;;;;;;2.13;61.59;99962.55;105139;1265;73923;-60
2023/03/29 09:15:13;;;;;;;3.00;0.60;;;;;;;2.14;60.00;99970.11;105125;1260;71255;-61
2023/03/29 09:17:55;;;;;;;5.10;1.50;;;;;;;2.15;59.20;99971.08;105183;1263;64997;-61
2023/03/29 09:20:37;;;;;;;3.50;0.80;;;;;;;2.19;58.82;99975.88;105183;1260;59672;-61
2023/03/29 09:23:12;;;;;;;3.50;1.50;;;;;;;2.19;58.45;99981.25;104968;1260;61311;-61
2023/03/29 09:26:18;;;;;;;2.20;0.70;;;;;;;2.15;59.44;99976.08;104997;1263;65612;-61
2023/03/29 09:29:53;;;;;;;3.50;0.80;;;;;;;2.12;60.38;99987.99;105141;1260;62548;-61
2023/03/29 09:32:32;;;;;;;6.70;1.10;;;;;;;2.09;59.81;100000.63;104995;1261;65096;-62
2023/03/29 09:35:21;;;;;;;4.30;2.50;;;;;;;2.11;58.93;100002.98;105052;1260;61029;-60
2023/03/29 09:37:51;;;;;;;4.20;1.00;;;;;;;2.15;58.88;100016.41;105178;1260;59637;-60
2023/03/29 09:40:38;;;;;;;3.30;1.30;;;;;;;2.17;59.14;100015.29;105268;1260;73986;-60
2023/03/29 09:43:17;;;;;;;2.70;0.90;;;;;;;2.12;58.82;100021.58;105278;1260;62394;-62
2023/03/29 09:45:49;;;;;;;5.50;1.60;;;;;;;2.10;60.43;100013.92;104981;1263;73917;-60
2023/03/29 09:48:18;;;;;;;3.80;0.90;;;;;;;2.11;60.04;100020.61;105074;1261;60416;-59
2023/03/29 09:50:51;;;;;;;3.10;1.10;;;;;;;2.14;60.24;100021.14;104968;1260;61039;-57
2023/03/29 09:53:20;;;;;;;3.10;0.70;;;;;;;2.16;58.82;100029.33;105034;1267;73734;-58
2023/03/29 09:55:57;;;;;;;4.40;0.90;;;;;;;2.16;58.80;100026.23;105252;1260;71216;-57
2023/03/29 09:58:33;;;;;;;3.60;1.10;;;;;;;2.15;58.57;100029.19;105099;1260;73419;-58
2023/03/29 10:01:09;;;;;;;2.40;0.70;;;;;;;2.18;58.20;100039.45;104996;1261;59768;-58
2023/03/29 10:03:38;;;;;;;3.40;0.80;;;;;;;2.15;57.90;100039.92;104977;1265;60385;-58
2023/03/29 10:06:13;;;;;;;4.00;1.10;;;;;;;2.11;58.07;100052.59;105244;1263;72910;-59
2023/03/29 10:08:50;;;;;;;5.50;1.60;;;;;;;2.12;58.27;100057.38;105347;1261;71034;-59
2023/03/29 10:11:40;;;;;;;3.20;0.80;;;;;;;2.20;57.82;100052.64;104996;1261;74864;-60
2023/03/29 10:14:22;;;;;;;2.60;0.80;;;;;;;2.20;57.69;100050.59;105275;1260;59662;-60
2023/03/29 10:16:55;;;;;;;2.50;0.70;;;;;;;2.19;57.58;100055.67;105312;1254;59967;-58
2023/03/29 10:19:29;;;;;;;2.00;0.70;;;;;;;2.18;57.40;100054.66;105438;1259;73006;-59
2023/03/29 10:22:01;;;;;;;2.70;0.70;;;;;;;2.15;57.67;100062.46;105329;1259;71277;-59
2023/03/29 10:24:30;;;;;;;2.40;0.60;;;;;;;2.11;57.72;100062.65;105356;1260;73986;-60
2023/03/29 10:27:00;;;;;;;4.80;1.30;;;;;;;2.06;57.68;100076.89;105387;1255;60916;-59
2023/03/29 10:29:39;;;;;;;4.00;1.30;;;;;;;2.02;57.75;100067.23;105314;1256;61093;-60
2023/03/29 10:32:21;;;;;;;3.80;1.10;;;;;;;2.06;58.41;100075.50;105252;1257;73849;-59
2023/03/29 10:34:50;;;;;;;2.30;0.60;;;;;;;2.06;57.41;100077.60;105375;1257;71016;-60
2023/03/29 10:37:19;;;;;;;4.40;1.30;;;;;;;2.04;57.66;100075.96;105322;1258;73597;-60
2023/03/29 10:39:49;;;;;;;3.20;1.00;;;;;;;2.10;57.67;100080.72;105416;1256;62136;-59
2023/03/29 10:42:18;;;;;;;4.10;1.40;;;;;;;2.20;58.06;100068.59;105520;1259;60825;-60
2023/03/29 10:44:57;;;;;;;4.80;1.10;;;;;;;2.28;57.36;100068.39;105369;1262;73973;-60
2023/03/29 10:47:26;;;;;;;3.90;1.50;;;;;;;2.34;56.65;100063.05;105316;1260;71003;-60
2023/03/29 10:49:57;;;;;;;4.00;0.80;;;;;;;2.42;56.90;100064.17;105280;1258;73697;-59
2023/03/29 10:52:28;;;;;;;4.30;1.30;;;;;;;2.52;56.91;100063.51;105673;1254;60518;-60
2023/03/29 10:54:58;;;;;;;4.80;1.80;;;;;;;2.58;56.54;100079.31;105671;1254;61058;-60
2023/03/29 10:57:36;;;;;;;4.40;1.30;;;;;;;2.49;56.01;100074.59;105418;1254;73805;-61
2023/03/29 11:00:23;;;;;;;3.90;0.80;;;;;;;2.44;56.35;100070.83;105506;1255;70884;-60
2023/03/29 11:03:01;;;;;;;3.90;0.80;;;;;;;2.47;56.80;100090.45;105574;1260;65805;-60
2023/03/29 11:05:56;;;;;;;1.60;0.50;;;;;;;2.45;56.64;100081.91;105352;1254;59768;-60
2023/03/29 11:08:34;;;;;;;3.20;0.90;;;;;;;2.43;56.66;100084.41;105458;1254;59768;-60
2023/03/29 11:11:20;;;;;;;3.70;1.00;;;;;;;2.36;56.29;100094.80;105627;1258;73716;-58
2023/03/29 11:14:01;;;;;;;3.10;1.10;;;;;;;2.30;57.01;100093.70;105572;1260;62718;-56
2023/03/29 11:16:29;;;;;;;2.80;1.10;;;;;;;2.27;57.35;100093.52;105540;1254;73386;-56
2023/03/29 11:19:00;;;;;;;3.80;1.10;;;;;;;2.29;57.18;100086.31;105585;1254;60726;-56
2023/03/29 11:21:50;;;;;;;3.60;1.40;;;;;;;2.34;57.27;100094.55;105498;1253;61034;-57
2023/03/29 11:24:45;;;;;;;3.70;1.00;;;;;;;2.44;56.35;100089.71;105539;1259;65401;-57
2023/03/29 11:27:21;;;;;;;4.00;1.10;;;;;;;2.58;55.87;100092.80;105479;1258;62363;-57
2023/03/29 11:30:11;;;;;;;3.10;1.10;;;;;;;2.66;55.65;100096.74;105736;1254;73573;-58
2023/03/29 11:32:42;;;;;;;3.10;0.90;;;;;;;2.65;55.63;100095.58;105585;1254;59646;-56
2023/03/29 11:35:30;;;;;;;3.20;0.90;;;;;;;2.69;55.89;100093.98;105620;1255;61026;-56
2023/03/29 11:38:04;;;;;;;2.70;0.70;;;;;;;2.70;55.74;100096.50;105553;1258;65403;-56
2023/03/29 11:40:52;;;;;;;2.80;0.80;;;;;;;2.71;55.52;100092.84;105621;1254;71310;-55
2023/03/29 11:43:27;;;;;;;4.80;1.40;;;;;;;2.72;55.43;100101.30;105560;1254;65352;-56
2023/03/29 11:46:31;;;;;;;2.90;0.80;;;;;;;2.67;55.24;100094.10;105486;1254;60478;-58
2023/03/29 11:49:18;;;;;;;6.00;1.90;;;;;;;2.68;54.50;100097.48;105657;1257;60077;-57
2023/03/29 11:51:58;;;;;;;4.10;1.20;;;;;;;2.70;54.29;100098.76;105576;1254;64085;-57
2023/03/29 11:54:37;;;;;;;3.50;1.20;;;;;;;2.72;54.14;100096.61;105780;1260;61583;-56
2023/03/29 11:57:13;;;;;;;3.40;1.10;;;;;;;2.73;53.94;100095.48;105599;1260;73524;-56
2023/03/29 12:00:11;;;;;;;3.30;0.80;;;;;;;2.75;54.13;100093.81;105433;1260;59705;-57
2023/03/29 12:02:46;;;;;;;3.10;0.90;;;;;;;2.77;54.22;100092.52;105551;1260;59678;-57
2023/03/29 12:05:31;;;;;;;4.10;1.00;;;;;;;2.78;53.75;100102.85;105493;1259;73890;-58
2023/03/29 12:08:09;;;;;;;4.00;1.00;;;;;;;2.81;53.51;100106.17;105442;1254;61689;-57
2023/03/29 12:10:42;;;;;;;2.70;0.80;;;;;;;2.83;53.08;100107.13;105323;1260;64987;-56
2023/03/29 12:13:13;;;;;;;3.70;1.10;;;;;;;2.83;53.37;100118.40;105368;1259;60577;-57
2023/03/29 12:15:44;;;;;;;4.20;1.10;;;;;;;2.78;53.15;100117.08;105619;1254;61231;-56